Allendale, CA

2:45 PM PDT on September 18, 2014 (GMT -0700)
Browns Valley | Change Station
CLOSE
Current Station
Personal Weather Station
Location: Vacaville, CA
Elevation: 158 ft
Nearby Weather Stations

Elev 158 ft 38.39 °N, 121.97 °W | Updated 4 seconds ago

Clear
Clear
80.3 °F
Feels Like 81 °F
N
1.0
Wind Variable Wind from South
Gusts 10.0 mph

Today
High -- | Low -- °F
--% Chance of Precip.
Yesterday
High -- | Low -- °F
Precip. -- in
6:52 AM 7:11 PM
Waning Crescent, 24% visible
Pressure 29.85 in
Visibility 10.0 miles
Clouds Clear
Heat Index 81 °F
Dew Point 61 °F
Humidity 52%
Rainfall 0.14 in
Snow Depth 1 in , 0 in , 0 in
UV 8 out of 12
Pollen 5.40 out of 12
Ozone Good
PM2.5 Good
Flu Activity Not available.
METAR KVCB 182053Z AUTO 21008KT 10SM CLR 27/14 A2985 RMK AO2 SLP106 T02720139 58008 TSNO

More Conditions Fewer Conditions

Pressure 29.85 in
Visibility 10.0 miles
Clouds Clear
Heat Index 81 °F
Dew Point 61 °F
Humidity 52%
Rainfall 0.14 in
Snow Depth 1 in , 0 in , 0 in
UV 8 out of 12
Pollen 5.40 out of 12
Ozone Good
PM2.5 Good
Flu Activity Not available.
METAR KVCB 182053Z AUTO 21008KT 10SM CLR 27/14 A2985 RMK AO2 SLP106 T02720139 58008 TSNO

More Conditions Fewer Conditions

10-Day Weather Forecast

Almanac

Astronomy

Sep. 18, 2014 Rise Set
Actual Time 6:52 AM PDT 7:11 PM PDT
Civil Twilight 6:25 AM PDT 7:37 PM PDT
Nautical Twilight 5:54 AM PDT 8:08 PM PDT
Astronomical Twilight 5:23 AM PDT 8:40 PM PDT
Moon 1:52 AM PDT 4:03 PM PDT
Length of Visible Light 13h 11m
Length of Day
12h 18m
Tomorrow will be 2m 28s shorter.
Waning Crescent, 24% of the Moon is Illuminated
Today
Waning Crescent
Sep 24
New
Oct 1
First Quarter
Oct 8
Full
Oct 15
Last Quarter

Today's Extremes

State Highs State Lows

Community

WunderPhotos

Upload Photos

1,754,452 photos uploaded!

WunderBlogs® & News

Nearby

Air Quality

  Air Quality AQ Index Pollutant
Yesterday Good
OZONE
Yesterday Good
PM2.5
Current Good
PM2.5
Current Good
OZONE
Thursday Good
OZONE
Friday Good
OZONE
Saturday Good
OZONE
Sunday Good
OZONE
Monday Good
OZONE
Tuesday Good
OZONE

Snow Depth

Station Depth Elevation
CSS Lab 1 in 6900 ft
Leavitt Meadows 0 in 7200 ft
Adin Mountain 0 in 6200 ft
Summit Meadow 0 in 9122 ft
Burnside Lake 0 in 8139 ft

Earthquake Activity

City Distance Mag. Time & Date
The Geysers, California 45 miles 2.5 11:29 PM PDT
2014-09-17
Cobb, California 47 miles 2.7 1:23 PM PDT
2014-09-16
Minimum magnitude displayed is 2.5.

Coastal Water Temperatures

Place Temperature
San Francisco, CA 64.9 °F
Richmond, CA 68.0 °F
Port Chicago, CA 70.0 °F

Nearby Weather Stations